Time;durP1;ratioP1;P1;durP2;ratioP2;P2;SDS_P1;SDS_P2;PMS_P1;PMS_P2;Temp;Humidity;BMP_temperature;BMP_pressure;BME280_temperature;BME280_humidity;BME280_pressure;Samples;Min_cycle;Max_cycle;Signal;HPM_P1;HPM_P2
2023/12/05 00:00:12;;;;;;;;;;;;;;;4.22;71.31;98705.91;1087242;54;1263;-77
2023/12/05 00:01:13;;;;;;;;;;;;;;;4.24;71.13;98703.13;1087220;47;1063;-76
2023/12/05 00:02:17;;;;;;;;;;;;;;;4.27;71.19;98702.00;1087430;54;1183;-77
2023/12/05 00:03:18;;;;;;;;;;;;;;;4.27;70.84;98702.84;1087097;54;1845;-76
2023/12/05 00:04:21;;;;;;;;;;;;;;;4.26;70.78;98697.69;1087056;54;1399;-76
2023/12/05 00:05:22;;;;;;;;;;;;;;;4.27;70.71;98696.72;1087316;54;1210;-75
2023/12/05 00:06:23;;;;;;;;;;;;;;;4.21;70.94;98700.72;1087263;54;1145;-76
2023/12/05 00:07:26;;;;;;;;;;;;;;;4.21;70.74;98706.03;1086969;54;1138;-76
2023/12/05 00:08:27;;;;;;;;;;;;;;;4.23;70.46;98698.78;1087125;47;1163;-76
2023/12/05 00:09:27;;;;;;;;;;;;;;;4.26;70.36;98697.69;1087332;47;1184;-76
2023/12/05 00:10:33;;;;;;;;;;;;;;;4.29;70.55;98698.28;1087162;54;1160;-76
2023/12/05 00:11:34;;;;;;;;;;;;;;;4.28;70.52;98701.03;1087385;47;1189;-77
2023/12/05 00:12:37;;;;;;;;;;;;;;;4.32;70.39;98694.50;1087150;47;1239;-77
2023/12/05 00:13:38;;;;;;;;;;;;;;;4.36;70.34;98701.19;1087526;47;1071;-77
2023/12/05 00:14:39;;;;;;;;;;;;;;;4.39;70.26;98689.50;1087767;47;1345;-77
2023/12/05 00:15:42;;;;;;;;;;;;;;;4.30;70.16;98684.03;1087789;47;1057;-77
2023/12/05 00:16:43;;;;;;;;;;;;;;;4.32;70.21;98690.03;1087796;54;1256;-78
2023/12/05 00:17:46;;;;;;;;;;;;;;;4.35;70.10;98683.63;1087802;54;1028;-77
2023/12/05 00:18:49;;;;;;;;;;;;;;;4.34;70.08;98684.63;1087891;54;1159;-77
2023/12/05 00:19:53;;;;;;;;;;;;;;;4.27;70.26;98680.84;1087778;54;1110;-78
2023/12/05 00:20:53;;;;;;;;;;;;;;;4.28;70.36;98693.09;1087975;54;1138;-77
2023/12/05 00:21:57;;;;;;;;;;;;;;;4.32;70.39;98687.38;1088088;46;1043;-77
2023/12/05 00:22:58;;;;;;;;;;;;;;;4.36;70.20;98686.16;1087877;54;1134;-77
2023/12/05 00:24:01;;;;;;;;;;;;;;;4.35;69.92;98680.97;1087767;46;1856;-76
2023/12/05 00:25:02;;;;;;;;;;;;;;;4.29;70.46;98687.69;1087873;54;1416;-77
2023/12/05 00:26:09;;;;;;;;;;;;;;;4.37;70.15;98681.69;1087905;47;988;-77
2023/12/05 00:27:10;;;;;;;;;;;;;;;4.36;70.16;98683.50;1087915;47;1560;-76
2023/12/05 00:28:13;;;;;;;;;;;;;;;4.42;70.23;98684.75;1087826;54;1159;-78
2023/12/05 00:29:13;;;;;;;;;;;;;;;4.35;70.09;98684.47;1087924;54;1107;-77
2023/12/05 00:30:17;;;;;;;;;;;;;;;4.38;70.38;98678.06;1087869;54;1143;-78
2023/12/05 00:31:17;;;;;;;;;;;;;;;4.43;69.95;98675.84;1087782;47;1069;-77
2023/12/05 00:32:22;;;;;;;;;;;;;;;4.44;69.83;98682.78;1087599;47;1159;-77
2023/12/05 00:33:23;;;;;;;;;;;;;;;4.42;70.19;98678.63;1087775;54;1084;-76
2023/12/05 00:34:26;;;;;;;;;;;;;;;4.48;69.95;98676.25;1087745;54;1385;-77
2023/12/05 00:35:27;;;;;;;;;;;;;;;4.37;69.78;98676.38;1087775;47;1146;-76
2023/12/05 00:36:30;;;;;;;;;;;;;;;4.42;69.92;98671.53;1087807;46;1223;-77
2023/12/05 00:37:31;;;;;;;;;;;;;;;4.35;69.98;98679.19;1087733;47;1083;-77
2023/12/05 00:38:34;;;;;;;;;;;;;;;4.41;70.22;98667.22;1087776;47;1007;-77
2023/12/05 00:39:35;;;;;;;;;;;;;;;4.42;70.18;98668.88;1087643;54;1069;-77
2023/12/05 00:40:38;;;;;;;;;;;;;;;4.40;69.83;98670.81;1087606;54;1219;-77
2023/12/05 00:41:42;;;;;;;;;;;;;;;4.40;69.88;98676.13;1087698;54;1100;-76
2023/12/05 00:42:45;;;;;;;;;;;;;;;4.46;69.56;98675.56;1087503;54;1227;-77
2023/12/05 00:43:46;;;;;;;;;;;;;;;4.43;69.93;98667.06;1087792;54;1860;-78
2023/12/05 00:44:50;;;;;;;;;;;;;;;4.47;69.73;98666.66;1087617;47;1397;-77
2023/12/05 00:45:50;;;;;;;;;;;;;;;4.35;69.84;98663.31;1087711;47;1198;-78
2023/12/05 00:46:54;;;;;;;;;;;;;;;4.48;69.53;98668.31;1087575;54;1124;-77
2023/12/05 00:47:54;;;;;;;;;;;;;;;4.44;69.78;98666.91;1087824;54;1096;-77
2023/12/05 00:48:57;;;;;;;;;;;;;;;4.37;69.96;98666.66;1087815;54;1155;-77
2023/12/05 00:49:58;;;;;;;;;;;;;;;4.44;69.66;98669.56;1087765;54;935;-77
2023/12/05 00:50:59;;;;;;;;;;;;;;;4.43;69.67;98664.41;1087529;54;1226;-78
2023/12/05 00:52:03;;;;;;;;;;;;;;;4.51;69.49;98670.69;1087784;54;1143;-77
2023/12/05 00:53:04;;;;;;;;;;;;;;;4.49;69.42;98667.34;1087700;47;1156;-77
2023/12/05 00:54:05;;;;;;;;;;;;;;;4.46;69.79;98670.25;1087449;47;1360;-77
2023/12/05 00:55:09;;;;;;;;;;;;;;;4.53;69.62;98666.06;1087434;47;1163;-76
2023/12/05 00:56:10;;;;;;;;;;;;;;;4.50;69.69;98660.22;1087615;47;1128;-77
2023/12/05 00:57:16;;;;;;;;;;;;;;;4.44;69.72;98666.09;1087750;54;1091;-77
2023/12/05 00:58:17;;;;;;;;;;;;;;;4.52;69.72;98674.16;1087727;54;1134;-77
2023/12/05 00:59:20;;;;;;;;;;;;;;;4.57;69.75;98663.16;1087612;47;1119;-77
2023/12/05 01:00:20;;;;;;;;;;;;;;;4.61;69.34;98672.50;1087452;47;1358;-78
2023/12/05 01:01:21;;;;;;;;;;;;;;;4.50;69.72;98668.16;1087495;47;1115;-77
2023/12/05 01:02:25;;;;;;;;;;;;;;;4.51;69.67;98676.00;1087449;47;1182;-77
2023/12/05 01:03:26;;;;;;;;;;;;;;;4.60;69.63;98676.94;1087367;54;1126;-77
2023/12/05 01:04:30;;;;;;;;;;;;;;;4.40;69.94;98678.78;1087697;47;1854;-78
2023/12/05 01:05:32;;;;;;;;;;;;;;;4.38;70.01;98683.34;1087742;47;1007;-77
2023/12/05 01:06:35;;;;;;;;;;;;;;;4.46;69.89;98683.50;1087810;47;1140;-79
2023/12/05 01:07:37;;;;;;;;;;;;;;;4.45;70.01;98678.34;1088037;47;1465;-77
2023/12/05 01:08:41;;;;;;;;;;;;;;;4.53;70.24;98681.97;1088067;54;1067;-78
2023/12/05 01:09:42;;;;;;;;;;;;;;;4.56;69.97;98677.38;1088049;54;1095;-78
2023/12/05 01:10:51;;;;;;;;;;;;;;;4.59;69.65;98677.91;1087878;54;1084;-77
2023/12/05 01:11:53;;;;;;;;;;;;;;;4.68;69.57;98679.72;1088021;47;1146;-77
2023/12/05 01:13:01;;;;;;;;;;;;;;;4.73;69.32;98665.25;1088029;46;1120;-78
2023/12/05 01:14:04;;;;;;;;;;;;;;;4.74;69.46;98673.03;1088093;54;1143;-79
2023/12/05 01:15:08;;;;;;;;;;;;;;;4.76;69.51;98675.56;1088233;47;1303;-77
2023/12/05 01:16:09;;;;;;;;;;;;;;;4.72;69.67;98676.81;1088350;47;1176;-77
2023/12/05 01:17:13;;;;;;;;;;;;;;;4.72;69.60;98677.66;1088198;47;1242;-78
2023/12/05 01:18:13;;;;;;;;;;;;;;;4.72;69.56;98680.31;1088438;47;1025;-77
2023/12/05 01:19:16;;;;;;;;;;;;;;;4.68;69.74;98678.91;1088342;54;1168;-77
2023/12/05 01:20:17;;;;;;;;;;;;;;;4.72;69.32;98682.94;1088428;54;1055;-77
2023/12/05 01:21:20;;;;;;;;;;;;;;;4.70;69.48;98676.97;1087806;46;985;-77
2023/12/05 01:22:22;;;;;;;;;;;;;;;4.76;69.48;98684.31;1087764;54;1234;-77
2023/12/05 01:23:27;;;;;;;;;;;;;;;4.69;69.67;98680.56;1087691;47;1238;-77
2023/12/05 01:24:27;;;;;;;;;;;;;;;4.74;69.53;98682.81;1087368;54;1911;-77
2023/12/05 01:25:38;;;;;;;;;;;;;;;4.71;69.72;98683.94;1087464;47;1172;-78
2023/12/05 01:26:38;;;;;;;;;;;;;;;4.80;69.89;98687.53;1086674;47;1176;-76
2023/12/05 01:27:42;;;;;;;;;;;;;;;4.87;69.47;98685.97;1086612;47;1214;-76
2023/12/05 01:28:52;;;;;;;;;;;;;;;4.86;69.56;98678.19;1086643;47;1099;-77
2023/12/05 01:29:56;;;;;;;;;;;;;;;4.88;69.58;98681.53;1086502;47;1131;-77
2023/12/05 01:30:56;;;;;;;;;;;;;;;4.84;69.63;98684.44;1086502;54;1120;-76
2023/12/05 01:32:00;;;;;;;;;;;;;;;4.58;70.61;98688.66;1086280;47;1080;-76
2023/12/05 01:33:01;;;;;;;;;;;;;;;4.74;70.25;98683.63;1086298;47;1203;-76
2023/12/05 01:34:05;;;;;;;;;;;;;;;4.73;70.37;98684.59;1086009;46;1083;-77
2023/12/05 01:35:06;;;;;;;;;;;;;;;4.66;70.36;98691.44;1086933;47;1525;-77
2023/12/05 01:36:11;;;;;;;;;;;;;;;4.76;70.18;98692.28;1086187;54;1091;-76
2023/12/05 01:37:11;;;;;;;;;;;;;;;4.75;70.10;98690.59;1086328;54;1509;-77
2023/12/05 01:38:14;;;;;;;;;;;;;;;4.76;70.38;98688.81;1086095;54;1092;-77
2023/12/05 01:39:15;;;;;;;;;;;;;;;4.81;70.50;98684.75;1085654;47;1067;-77
2023/12/05 01:40:19;;;;;;;;;;;;;;;4.84;70.43;98684.44;1085770;47;1143;-77
2023/12/05 01:41:19;;;;;;;;;;;;;;;4.79;70.45;98681.41;1085769;54;1088;-76
2023/12/05 01:42:23;;;;;;;;;;;;;;;4.86;70.49;98691.41;1085903;47;1019;-77
2023/12/05 01:43:24;;;;;;;;;;;;;;;4.82;70.61;98691.69;1085907;46;1092;-76
2023/12/05 01:44:30;;;;;;;;;;;;;;;4.88;70.35;98692.13;1085850;54;1843;-76
2023/12/05 01:45:31;;;;;;;;;;;;;;;4.88;70.29;98692.13;1085827;47;1191;-76
2023/12/05 01:46:34;;;;;;;;;;;;;;;4.80;70.72;98701.63;1085564;47;1159;-76
2023/12/05 01:47:35;;;;;;;;;;;;;;;4.79;70.49;98697.28;1085792;47;1161;-76
2023/12/05 01:48:36;;;;;;;;;;;;;;;4.80;70.70;98692.81;1085994;54;1508;-76
2023/12/05 01:49:40;;;;;;;;;;;;;;;4.90;70.49;98695.47;1085655;47;1175;-76
2023/12/05 01:50:40;;;;;;;;;;;;;;;4.86;70.64;98699.38;1085944;47;1151;-76
2023/12/05 01:51:44;;;;;;;;;;;;;;;4.88;70.40;98687.66;1085747;47;1134;-75
2023/12/05 01:52:52;;;;;;;;;;;;;;;4.80;70.76;98692.81;1086071;54;1115;-78
2023/12/05 01:53:56;;;;;;;;;;;;;;;4.86;70.69;98689.63;1085769;54;1107;-76
2023/12/05 01:54:57;;;;;;;;;;;;;;;4.95;70.52;98690.56;1084680;54;1433;-77
2023/12/05 01:56:01;;;;;;;;;;;;;;;4.89;70.64;98697.28;1084806;47;1158;-76
2023/12/05 01:57:02;;;;;;;;;;;;;;;4.94;70.71;98688.91;1085880;54;1118;-76
2023/12/05 01:58:07;;;;;;;;;;;;;;;4.88;70.50;98689.47;1085863;54;1137;-77
2023/12/05 01:59:08;;;;;;;;;;;;;;;4.95;70.43;98690.56;1085762;54;1174;-77
2023/12/05 02:00:14;;;;;;;;;;;;;;;4.95;70.38;98687.91;1085564;47;1166;-77
2023/12/05 02:01:15;;;;;;;;;;;;;;;4.98;70.57;98685.00;1085767;47;1163;-77
2023/12/05 02:02:19;;;;;;;;;;;;;;;4.91;70.66;98686.56;1087403;54;1075;-76
2023/12/05 02:03:20;;;;;;;;;;;;;;;4.94;70.80;98687.09;1088512;54;1102;-77
2023/12/05 02:04:24;;;;;;;;;;;;;;;4.97;70.62;98688.63;1088312;54;1864;-77
2023/12/05 02:05:25;;;;;;;;;;;;;;;5.06;70.47;98686.91;1087598;46;951;-77
2023/12/05 02:06:28;;;;;;;;;;;;;;;4.96;70.86;98686.94;1087817;54;1102;-77
2023/12/05 02:07:30;;;;;;;;;;;;;;;5.02;70.43;98681.06;1088143;54;1345;-77
2023/12/05 02:08:34;;;;;;;;;;;;;;;5.07;70.65;98675.34;1087945;46;1031;-77
2023/12/05 02:09:35;;;;;;;;;;;;;;;5.09;70.34;98679.56;1088084;47;1079;-77
2023/12/05 02:10:39;;;;;;;;;;;;;;;5.12;70.35;98678.41;1088179;54;1083;-77
2023/12/05 02:11:41;;;;;;;;;;;;;;;5.10;70.68;98675.91;1088464;47;906;-76
2023/12/05 02:12:44;;;;;;;;;;;;;;;4.94;71.01;98673.88;1088431;47;921;-75
2023/12/05 02:13:47;;;;;;;;;;;;;;;4.97;71.00;98670.09;1088576;54;1003;-77
2023/12/05 02:14:48;;;;;;;;;;;;;;;5.05;70.76;98675.50;1088256;46;1397;-77
2023/12/05 02:16:07;;;;;;;;;;;;;;;5.09;70.54;98666.31;1088508;54;978;-77
2023/12/05 02:17:10;;;;;;;;;;;;;;;5.03;70.89;98672.16;1087828;54;1051;-77
2023/12/05 02:18:17;;;;;;;;;;;;;;;5.05;70.78;98670.19;1085263;54;1139;-75
2023/12/05 02:19:32;;;;;;;;;;;;;;;5.02;71.00;98667.84;1085070;46;1196;-75
2023/12/05 02:20:40;;;;;;;;;;;;;;;5.09;70.80;98668.94;1084898;54;1076;-75
2023/12/05 02:21:43;;;;;;;;;;;;;;;4.99;70.71;98661.00;1084909;54;1079;-75
2023/12/05 02:23:04;;;;;;;;;;;;;;;5.01;71.08;98668.81;1084967;54;1396;-75
2023/12/05 02:24:14;;;;;;;;;;;;;;;5.08;70.86;98671.72;1085142;46;1928;-76
2023/12/05 02:25:24;;;;;;;;;;;;;;;5.04;70.90;98667.72;1084969;54;1361;-75
2023/12/05 02:26:32;;;;;;;;;;;;;;;5.03;71.31;98672.16;1085586;54;1196;-75
2023/12/05 02:27:41;;;;;;;;;;;;;;;4.93;71.45;98671.34;1085241;46;1023;-75
2023/12/05 02:28:42;;;;;;;;;;;;;;;4.86;71.69;98675.53;1085188;54;1108;-76
2023/12/05 02:29:46;;;;;;;;;;;;;;;4.95;71.60;98675.53;1085291;47;1159;-76
2023/12/05 02:30:50;;;;;;;;;;;;;;;4.95;71.44;98669.38;1084850;47;1413;-74
2023/12/05 02:31:51;;;;;;;;;;;;;;;5.02;71.34;98673.13;1084966;47;1143;-74
2023/12/05 02:32:55;;;;;;;;;;;;;;;5.00;71.28;98670.63;1084817;54;1542;-75
2023/12/05 02:33:56;;;;;;;;;;;;;;;5.06;71.15;98671.88;1084850;47;1154;-75
2023/12/05 02:34:59;;;;;;;;;;;;;;;5.12;71.06;98670.47;1084981;54;1428;-75
2023/12/05 02:36:03;;;;;;;;;;;;;;;5.04;71.15;98675.66;1085404;54;1525;-75
2023/12/05 02:37:22;;;;;;;;;;;;;;;4.97;71.45;98670.09;1085406;54;1066;-76
2023/12/05 02:38:27;;;;;;;;;;;;;;;5.06;71.13;98676.31;1085764;54;1177;-77
2023/12/05 02:39:34;;;;;;;;;;;;;;;5.04;71.40;98673.00;1085935;54;1326;-76
2023/12/05 02:40:38;;;;;;;;;;;;;;;5.10;71.10;98672.41;1086235;54;1486;-76
2023/12/05 02:41:42;;;;;;;;;;;;;;;4.97;71.62;98667.44;1086292;47;1071;-77
2023/12/05 02:42:47;;;;;;;;;;;;;;;4.93;71.58;98666.88;1086125;54;1161;-76
2023/12/05 02:43:54;;;;;;;;;;;;;;;4.89;71.89;98670.78;1086559;46;1063;-76
2023/12/05 02:44:56;;;;;;;;;;;;;;;4.95;71.69;98678.19;1086113;47;1858;-76
2023/12/05 02:46:01;;;;;;;;;;;;;;;4.91;71.79;98671.50;1085779;46;960;-76
2023/12/05 02:47:04;;;;;;;;;;;;;;;4.88;71.94;98669.13;1085572;54;917;-76
2023/12/05 02:48:07;;;;;;;;;;;;;;;4.96;71.77;98666.59;1085863;46;1092;-76
2023/12/05 02:49:09;;;;;;;;;;;;;;;4.90;71.84;98667.16;1086936;54;992;-76
2023/12/05 02:50:12;;;;;;;;;;;;;;;4.82;72.22;98670.50;1086627;47;1150;-76
2023/12/05 02:51:13;;;;;;;;;;;;;;;4.78;72.45;98679.72;1086078;54;1175;-75
2023/12/05 02:52:17;;;;;;;;;;;;;;;4.83;72.52;98682.78;1086768;54;1083;-75
2023/12/05 02:53:18;;;;;;;;;;;;;;;4.94;72.19;98680.94;1086603;54;1147;-76
2023/12/05 02:54:22;;;;;;;;;;;;;;;4.99;72.16;98682.19;1086369;47;1340;-75
2023/12/05 02:55:22;;;;;;;;;;;;;;;4.96;72.32;98684.31;1086632;47;1053;-78
2023/12/05 02:56:26;;;;;;;;;;;;;;;4.83;72.67;98685.44;1086212;47;1179;-76
2023/12/05 02:57:27;;;;;;;;;;;;;;;4.83;72.93;98677.47;1086034;54;1096;-77
2023/12/05 02:58:33;;;;;;;;;;;;;;;4.91;72.85;98690.03;1086461;47;1075;-77
2023/12/05 02:59:33;;;;;;;;;;;;;;;4.92;72.86;98691.69;1086249;54;1114;-77
2023/12/05 03:00:37;;;;;;;;;;;;;;;4.97;72.61;98683.31;1086052;47;1083;-75
2023/12/05 03:01:38;;;;;;;;;;;;;;;5.06;72.35;98686.91;1087791;54;1147;-78
2023/12/05 03:02:42;;;;;;;;;;;;;;;5.01;72.65;98697.94;1087206;47;1031;-78
2023/12/05 03:03:43;;;;;;;;;;;;;;;5.11;72.26;98696.13;1087740;47;1064;-79
2023/12/05 03:04:47;;;;;;;;;;;;;;;5.12;72.13;98695.13;1087325;54;1908;-78
2023/12/05 03:05:47;;;;;;;;;;;;;;;5.13;72.26;98696.00;1087062;47;1119;-79
2023/12/05 03:06:51;;;;;;;;;;;;;;;5.03;72.70;98709.25;1087008;54;1078;-78
2023/12/05 03:07:51;;;;;;;;;;;;;;;5.19;72.30;98697.22;1086885;54;1183;-76
2023/12/05 03:08:56;;;;;;;;;;;;;;;5.26;72.21;98701.78;1087036;46;1033;-76
2023/12/05 03:09:56;;;;;;;;;;;;;;;5.25;71.95;98701.94;1087389;47;1107;-75
2023/12/05 03:11:00;;;;;;;;;;;;;;;5.09;72.51;98708.69;1087369;47;1048;-77
2023/12/05 03:12:01;;;;;;;;;;;;;;;5.22;72.30;98707.53;1086729;46;1099;-76
2023/12/05 03:13:04;;;;;;;;;;;;;;;5.12;72.57;98704.91;1087106;46;1043;-76
2023/12/05 03:14:08;;;;;;;;;;;;;;;5.13;72.59;98709.22;1086804;54;1130;-76
2023/12/05 03:15:11;;;;;;;;;;;;;;;5.22;72.34;98712.81;1086412;54;1343;-77
2023/12/05 03:16:12;;;;;;;;;;;;;;;5.24;72.12;98718.81;1086559;54;1178;-77
2023/12/05 03:17:15;;;;;;;;;;;;;;;5.25;72.26;98717.84;1087163;46;1092;-77
2023/12/05 03:18:16;;;;;;;;;;;;;;;5.25;72.21;98728.44;1087088;54;1183;-76
2023/12/05 03:19:19;;;;;;;;;;;;;;;5.21;72.37;98732.34;1087431;54;1135;-77
2023/12/05 03:20:20;;;;;;;;;;;;;;;5.30;72.00;98723.53;1086009;54;1610;-76
2023/12/05 03:21:20;;;;;;;;;;;;;;;5.22;72.20;98729.56;1085817;54;1107;-76
2023/12/05 03:22:24;;;;;;;;;;;;;;;5.13;72.60;98728.59;1086235;54;897;-76
2023/12/05 03:23:25;;;;;;;;;;;;;;;5.15;72.62;98726.66;1087042;54;1154;-76
2023/12/05 03:24:26;;;;;;;;;;;;;;;5.33;72.35;98715.31;1086460;54;1891;-76
2023/12/05 03:25:29;;;;;;;;;;;;;;;5.37;71.68;98706.09;1085915;54;1182;-76
2023/12/05 03:26:30;;;;;;;;;;;;;;;5.32;71.95;98703.03;1086962;47;1160;-77
2023/12/05 03:27:33;;;;;;;;;;;;;;;5.40;71.70;98708.44;1087405;54;1090;-76
2023/12/05 03:28:34;;;;;;;;;;;;;;;5.33;72.08;98707.38;1086811;47;1136;-76
2023/12/05 03:29:39;;;;;;;;;;;;;;;5.38;71.76;98696.31;1086727;47;1161;-76
2023/12/05 03:30:40;;;;;;;;;;;;;;;5.30;71.77;98708.50;1086212;47;1165;-75
2023/12/05 03:31:43;;;;;;;;;;;;;;;5.27;71.72;98711.41;1084728;54;1172;-76
2023/12/05 03:32:45;;;;;;;;;;;;;;;5.41;71.59;98704.81;1086000;54;1146;-77
2023/12/05 03:33:48;;;;;;;;;;;;;;;5.41;71.63;98701.34;1087953;54;989;-76
2023/12/05 03:34:49;;;;;;;;;;;;;;;5.42;71.49;98695.06;1087831;47;1367;-77
2023/12/05 03:35:52;;;;;;;;;;;;;;;5.36;71.45;98709.72;1088090;46;918;-77
2023/12/05 03:36:53;;;;;;;;;;;;;;;5.25;71.78;98705.41;1088214;54;1123;-76
2023/12/05 03:37:56;;;;;;;;;;;;;;;5.31;71.57;98702.22;1088307;54;858;-77
2023/12/05 03:38:57;;;;;;;;;;;;;;;5.34;71.58;98708.22;1088174;47;995;-78
2023/12/05 03:40:00;;;;;;;;;;;;;;;5.36;71.66;98700.94;1088133;54;945;-78
2023/12/05 03:41:00;;;;;;;;;;;;;;;5.26;71.71;98708.94;1088071;46;1192;-77
2023/12/05 03:42:04;;;;;;;;;;;;;;;5.32;71.67;98708.34;1087922;47;935;-77
2023/12/05 03:43:05;;;;;;;;;;;;;;;5.36;71.62;98715.03;1087802;46;1101;-76
2023/12/05 03:44:08;;;;;;;;;;;;;;;5.37;71.42;98706.09;1087763;54;1173;-77
2023/12/05 03:45:12;;;;;;;;;;;;;;;5.24;71.54;98708.22;1087952;54;1847;-77
2023/12/05 03:46:15;;;;;;;;;;;;;;;5.23;71.77;98714.50;1088121;47;935;-77
2023/12/05 03:47:16;;;;;;;;;;;;;;;5.26;71.75;98715.03;1088146;47;1037;-78
2023/12/05 03:48:16;;;;;;;;;;;;;;;5.27;71.36;98715.91;1088134;54;1008;-77
2023/12/05 03:49:19;;;;;;;;;;;;;;;5.26;71.65;98711.56;1088217;54;1024;-77
2023/12/05 03:50:22;;;;;;;;;;;;;;;5.28;71.52;98712.28;1087971;47;1080;-77
2023/12/05 03:51:25;;;;;;;;;;;;;;;5.23;71.47;98709.19;1088037;47;1163;-77
2023/12/05 03:52:26;;;;;;;;;;;;;;;5.28;71.58;98717.56;1087989;54;1104;-77
2023/12/05 03:53:30;;;;;;;;;;;;;;;5.34;71.47;98709.03;1087888;47;1079;-77
2023/12/05 03:54:31;;;;;;;;;;;;;;;5.35;71.19;98702.75;1087938;54;1332;-79
2023/12/05 03:55:33;;;;;;;;;;;;;;;5.38;71.16;98713.09;1087991;54;1064;-79
2023/12/05 03:56:36;;;;;;;;;;;;;;;5.46;70.75;98705.25;1087821;54;1101;-77
2023/12/05 03:57:37;;;;;;;;;;;;;;;5.41;71.04;98710.13;1088027;54;984;-79
2023/12/05 03:58:42;;;;;;;;;;;;;;;5.43;70.99;98712.66;1088127;54;1039;-77
2023/12/05 03:59:44;;;;;;;;;;;;;;;5.44;70.86;98709.00;1088012;47;877;-78
2023/12/05 04:00:48;;;;;;;;;;;;;;;5.43;70.98;98716.13;1088148;54;928;-78
2023/12/05 04:01:52;;;;;;;;;;;;;;;5.46;70.82;98709.69;1088041;54;1026;-78
2023/12/05 04:02:55;;;;;;;;;;;;;;;5.44;70.83;98707.19;1087963;47;1008;-79
2023/12/05 04:03:59;;;;;;;;;;;;;;;5.45;71.03;98706.22;1088132;54;1026;-78
2023/12/05 04:05:00;;;;;;;;;;;;;;;5.54;70.80;98706.31;1087943;54;1853;-78
2023/12/05 04:06:04;;;;;;;;;;;;;;;5.56;71.04;98715.78;1087745;54;1031;-77
2023/12/05 04:07:05;;;;;;;;;;;;;;;5.33;71.38;98714.50;1087580;47;1092;-76
2023/12/05 04:08:09;;;;;;;;;;;;;;;5.40;71.46;98710.28;1087574;47;983;-77
2023/12/05 04:09:09;;;;;;;;;;;;;;;5.46;70.92;98710.53;1087502;54;1087;-77
2023/12/05 04:10:13;;;;;;;;;;;;;;;5.52;71.07;98710.94;1087237;54;1245;-77
2023/12/05 04:11:15;;;;;;;;;;;;;;;5.58;71.04;98713.00;1086844;47;1104;-76
2023/12/05 04:12:19;;;;;;;;;;;;;;;5.60;70.80;98716.34;1087193;54;1406;-77
2023/12/05 04:13:19;;;;;;;;;;;;;;;5.53;70.72;98708.13;1087024;47;1083;-77
2023/12/05 04:14:29;;;;;;;;;;;;;;;5.53;70.98;98717.91;1087256;47;1360;-77
2023/12/05 04:15:30;;;;;;;;;;;;;;;5.52;70.88;98708.28;1086730;47;1183;-76
2023/12/05 04:16:36;;;;;;;;;;;;;;;5.54;71.01;98714.28;1087209;54;1126;-77
2023/12/05 04:17:36;;;;;;;;;;;;;;;5.56;70.79;98709.69;1087488;54;1019;-77
2023/12/05 04:18:37;;;;;;;;;;;;;;;5.50;70.88;98715.53;1088023;46;1000;-77
2023/12/05 04:19:40;;;;;;;;;;;;;;;5.53;70.93;98710.78;1087771;47;983;-77
2023/12/05 04:20:41;;;;;;;;;;;;;;;5.55;70.59;98710.66;1087668;54;1033;-77
2023/12/05 04:21:45;;;;;;;;;;;;;;;5.62;70.58;98717.03;1087771;54;1035;-77
2023/12/05 04:22:47;;;;;;;;;;;;;;;5.59;70.76;98714.66;1087427;47;960;-77
2023/12/05 04:23:48;;;;;;;;;;;;;;;5.63;70.34;98716.06;1087581;47;1065;-77
2023/12/05 04:24:51;;;;;;;;;;;;;;;5.61;70.49;98713.56;1087808;47;1843;-77
2023/12/05 04:25:52;;;;;;;;;;;;;;;5.61;70.79;98718.00;1087186;54;1351;-77
2023/12/05 04:26:55;;;;;;;;;;;;;;;5.59;70.73;98719.97;1087174;54;1114;-77
2023/12/05 04:27:55;;;;;;;;;;;;;;;5.53;70.61;98718.72;1087385;54;1084;-76
2023/12/05 04:28:59;;;;;;;;;;;;;;;5.59;70.70;98720.81;1087051;47;935;-77
2023/12/05 04:29:59;;;;;;;;;;;;;;;5.62;70.42;98715.22;1086893;47;1139;-76
2023/12/05 04:31:03;;;;;;;;;;;;;;;5.65;70.41;98715.91;1086778;47;1012;-77
2023/12/05 04:32:07;;;;;;;;;;;;;;;5.58;70.71;98713.00;1086867;47;1075;-77
2023/12/05 04:33:08;;;;;;;;;;;;;;;5.60;70.74;98719.00;1086143;54;1190;-77
2023/12/05 04:34:12;;;;;;;;;;;;;;;5.59;70.88;98717.31;1086781;54;1346;-77
2023/12/05 04:35:15;;;;;;;;;;;;;;;5.62;70.65;98722.34;1086477;54;1637;-77
2023/12/05 04:36:18;;;;;;;;;;;;;;;5.57;70.83;98728.06;1087615;54;1057;-76
2023/12/05 04:37:19;;;;;;;;;;;;;;;5.66;70.84;98718.44;1087780;54;1130;-78
2023/12/05 04:38:22;;;;;;;;;;;;;;;5.56;70.96;98722.94;1087879;54;835;-77
2023/12/05 04:39:23;;;;;;;;;;;;;;;5.60;70.94;98719.00;1087945;54;1103;-78
2023/12/05 04:40:26;;;;;;;;;;;;;;;5.70;70.61;98721.63;1088017;54;1083;-77
2023/12/05 04:41:27;;;;;;;;;;;;;;;5.67;71.01;98717.41;1087955;54;1123;-77
2023/12/05 04:42:31;;;;;;;;;;;;;;;5.67;70.88;98721.91;1087754;47;1027;-78
2023/12/05 04:43:31;;;;;;;;;;;;;;;5.67;70.71;98725.38;1087917;54;1067;-78
2023/12/05 04:44:32;;;;;;;;;;;;;;;5.67;70.89;98719.25;1087882;54;1241;-78
2023/12/05 04:45:35;;;;;;;;;;;;;;;5.60;71.19;98726.94;1087775;47;1844;-78
2023/12/05 04:46:37;;;;;;;;;;;;;;;5.60;70.86;98726.94;1087882;54;1122;-78
2023/12/05 04:47:43;;;;;;;;;;;;;;;5.66;70.96;98725.53;1087990;54;966;-78
2023/12/05 04:48:44;;;;;;;;;;;;;;;5.57;70.98;98719.31;1087889;47;933;-78
2023/12/05 04:49:47;;;;;;;;;;;;;;;5.61;71.19;98720.66;1087908;47;954;-77
2023/12/05 04:50:48;;;;;;;;;;;;;;;5.56;71.24;98726.41;1087910;47;889;-79
2023/12/05 04:51:52;;;;;;;;;;;;;;;5.66;71.08;98730.84;1087774;47;993;-77
2023/12/05 04:52:53;;;;;;;;;;;;;;;5.60;71.44;98726.94;1087530;54;1008;-77
2023/12/05 04:53:56;;;;;;;;;;;;;;;5.54;71.24;98722.22;1087745;47;1104;-77
2023/12/05 04:54:58;;;;;;;;;;;;;;;5.59;71.36;98731.44;1087726;54;1300;-75
2023/12/05 04:56:01;;;;;;;;;;;;;;;5.62;71.29;98722.34;1087818;54;1138;-77
2023/12/05 04:57:02;;;;;;;;;;;;;;;5.54;71.64;98723.06;1087552;54;1213;-76
2023/12/05 04:58:02;;;;;;;;;;;;;;;5.53;71.67;98718.72;1088037;54;1163;-79
2023/12/05 04:59:06;;;;;;;;;;;;;;;5.56;71.38;98720.28;1087657;47;1052;-76
2023/12/05 05:00:08;;;;;;;;;;;;;;;5.63;71.55;98713.41;1087497;47;1068;-77
2023/12/05 05:01:12;;;;;;;;;;;;;;;5.55;71.40;98716.78;1087280;54;1180;-77
2023/12/05 05:02:13;;;;;;;;;;;;;;;5.61;71.53;98712.72;1087689;54;1108;-77
2023/12/05 05:03:19;;;;;;;;;;;;;;;5.62;71.22;98712.56;1087746;54;1120;-78
2023/12/05 05:04:20;;;;;;;;;;;;;;;5.60;71.26;98716.34;1086979;54;1383;-78
2023/12/05 05:05:24;;;;;;;;;;;;;;;5.62;71.45;98715.22;1086977;47;1867;-77
2023/12/05 05:06:25;;;;;;;;;;;;;;;5.47;71.78;98714.88;1087473;54;1255;-79
2023/12/05 05:07:28;;;;;;;;;;;;;;;5.54;71.65;98724.88;1086805;47;1522;-78
2023/12/05 05:08:29;;;;;;;;;;;;;;;5.52;71.81;98713.59;1087681;47;1051;-78
2023/12/05 05:09:32;;;;;;;;;;;;;;;5.57;71.51;98716.66;1087224;47;1049;-78
2023/12/05 05:10:33;;;;;;;;;;;;;;;5.63;71.61;98718.72;1087294;47;1148;-78
2023/12/05 05:11:36;;;;;;;;;;;;;;;5.56;71.63;98714.97;1087916;47;950;-78
2023/12/05 05:12:37;;;;;;;;;;;;;;;5.62;71.61;98717.84;1087848;54;1452;-79
2023/12/05 05:13:40;;;;;;;;;;;;;;;5.63;71.67;98722.19;1087547;47;1064;-78
2023/12/05 05:14:41;;;;;;;;;;;;;;;5.65;71.61;98719.41;1087108;47;1500;-77
2023/12/05 05:15:44;;;;;;;;;;;;;;;5.66;71.35;98718.44;1087847;54;1146;-78
2023/12/05 05:16:45;;;;;;;;;;;;;;;5.62;71.82;98719.69;1087303;54;1091;-78
2023/12/05 05:17:49;;;;;;;;;;;;;;;5.66;71.39;98721.06;1087395;54;1124;-78
2023/12/05 05:19:01;;;;;;;;;;;;;;;5.57;72.07;98717.47;1087329;47;1038;-78
2023/12/05 05:20:05;;;;;;;;;;;;;;;5.47;71.88;98717.53;1087398;54;1086;-77
2023/12/05 05:21:07;;;;;;;;;;;;;;;5.52;72.38;98714.44;1087070;54;1078;-77
2023/12/05 05:22:11;;;;;;;;;;;;;;;5.55;72.04;98721.25;1087939;54;1400;-76
2023/12/05 05:23:13;;;;;;;;;;;;;;;5.52;72.07;98718.88;1087670;47;982;-77
2023/12/05 05:24:17;;;;;;;;;;;;;;;5.46;72.29;98715.84;1087734;54;943;-78
2023/12/05 05:25:18;;;;;;;;;;;;;;;5.51;72.28;98723.38;1088055;47;1856;-77
2023/12/05 05:26:22;;;;;;;;;;;;;;;5.61;71.75;98720.66;1087853;47;1001;-77
2023/12/05 05:27:23;;;;;;;;;;;;;;;5.60;71.75;98725.16;1087996;54;972;-77
2023/12/05 05:28:24;;;;;;;;;;;;;;;5.51;72.11;98727.81;1087941;54;1028;-78
2023/12/05 05:29:28;;;;;;;;;;;;;;;5.55;72.14;98723.91;1087988;54;952;-77
2023/12/05 05:30:29;;;;;;;;;;;;;;;5.62;71.82;98722.34;1087838;54;909;-78
2023/12/05 05:31:32;;;;;;;;;;;;;;;5.65;71.95;98719.41;1087610;47;999;-77
2023/12/05 05:32:34;;;;;;;;;;;;;;;5.62;71.66;98728.47;1087523;47;1474;-77
2023/12/05 05:33:37;;;;;;;;;;;;;;;5.68;71.74;98729.69;1087674;54;999;-78
2023/12/05 05:34:40;;;;;;;;;;;;;;;5.68;71.78;98728.88;1087577;47;1371;-77
2023/12/05 05:35:43;;;;;;;;;;;;;;;5.75;71.58;98733.47;1087720;54;1462;-79
2023/12/05 05:36:45;;;;;;;;;;;;;;;5.71;71.66;98731.25;1087822;54;957;-81